createdAt,value
2023-02-04T00:02:58.653Z,99.60
2023-02-04T00:06:00.198Z,99.90
2023-02-04T00:09:01.718Z,99.70
2023-02-04T00:12:03.302Z,99.60
2023-02-04T00:15:05.306Z,99.70
2023-02-04T00:18:07.178Z,99.60
2023-02-04T00:21:08.704Z,99.50
2023-02-04T00:24:10.192Z,99.60
2023-02-04T00:27:11.689Z,99.60
2023-02-04T00:30:13.766Z,99.70
2023-02-04T00:33:15.285Z,99.40
2023-02-04T00:36:16.744Z,99.60
2023-02-04T00:39:18.269Z,99.90
2023-02-04T00:42:19.776Z,99.90
2023-02-04T00:45:21.220Z,99.80
2023-02-04T00:48:22.682Z,99.80
2023-02-04T00:51:24.188Z,99.70
2023-02-04T00:54:26.054Z,99.80
2023-02-04T00:57:27.568Z,99.70
2023-02-04T01:00:29.365Z,99.80
2023-02-04T01:03:31.129Z,99.70
2023-02-04T01:06:33.207Z,99.70
2023-02-04T01:09:34.700Z,99.80
2023-02-04T01:12:36.232Z,99.70
2023-02-04T01:15:37.916Z,99.60
2023-02-04T01:18:39.396Z,99.60
2023-02-04T01:21:41.113Z,99.60
2023-02-04T01:24:42.991Z,99.40
2023-02-04T01:27:44.863Z,99.90
2023-02-04T01:30:46.398Z,99.60
2023-02-04T01:33:48.028Z,99.70
2023-02-04T01:36:49.484Z,99.60
2023-02-04T01:39:51.003Z,99.50
2023-02-04T01:42:52.858Z,99.40
2023-02-04T01:45:54.618Z,99.70
2023-02-04T01:48:56.263Z,99.80
2023-02-04T01:51:57.909Z,99.60
2023-02-04T01:54:59.439Z,99.60
2023-02-04T01:58:01.771Z,99.60
2023-02-04T02:01:06.165Z,99.70
2023-02-04T02:04:08.645Z,99.60
2023-02-04T02:07:11.471Z,99.60
2023-02-04T02:10:13.431Z,99.60
2023-02-04T02:13:16.877Z,99.90
2023-02-04T02:16:18.357Z,99.70
2023-02-04T02:19:22.864Z,99.90
2023-02-04T02:22:24.350Z,99.70
2023-02-04T02:25:25.900Z,99.70
2023-02-04T02:28:27.383Z,99.70
2023-02-04T02:31:29.160Z,99.70
2023-02-04T02:34:30.849Z,99.60
2023-02-04T02:37:32.393Z,99.90
2023-02-04T02:40:33.952Z,99.60
2023-02-04T02:43:35.949Z,99.90
2023-02-04T02:46:37.493Z,99.70
2023-02-04T02:49:40.884Z,99.60
2023-02-04T02:52:52.218Z,99.90
2023-02-04T02:55:53.771Z,99.10
2023-02-04T02:58:55.322Z,99.70
2023-02-04T03:02:03.036Z,99.40
2023-02-04T03:05:04.695Z,99.70
2023-02-04T03:08:06.484Z,99.60
2023-02-04T03:11:07.967Z,99.70
2023-02-04T03:14:09.511Z,99.50
2023-02-04T03:17:11.177Z,99.50
2023-02-04T03:20:13.655Z,99.80
2023-02-04T03:23:15.180Z,99.90
2023-02-04T03:26:16.981Z,99.60
2023-02-04T03:29:18.521Z,99.60
2023-02-04T03:32:19.972Z,99.60
2023-02-04T03:35:21.486Z,99.70
2023-02-04T03:38:22.997Z,99.60
2023-02-04T03:41:24.509Z,99.80
2023-02-04T03:44:26.856Z,99.70
2023-02-04T03:47:28.336Z,99.80
2023-02-04T03:50:30.069Z,99.80
2023-02-04T03:53:31.757Z,99.70
2023-02-04T03:56:33.232Z,99.70
2023-02-04T03:59:34.966Z,99.80
2023-02-04T04:02:36.491Z,99.70
2023-02-04T04:05:38.013Z,99.80
2023-02-04T04:08:39.460Z,99.70
2023-02-04T04:11:40.933Z,99.60
2023-02-04T04:14:42.462Z,99.70
2023-02-04T04:17:43.914Z,99.70
2023-02-04T04:20:45.390Z,99.70
2023-02-04T04:23:46.855Z,99.90
2023-02-04T04:26:48.307Z,99.60
2023-02-04T04:29:49.783Z,99.60
2023-02-04T04:32:51.263Z,99.60
2023-02-04T04:35:52.804Z,99.70
2023-02-04T04:38:54.264Z,99.70
2023-02-04T04:41:55.764Z,99.60
2023-02-04T04:44:57.320Z,99.90
2023-02-04T04:47:58.869Z,99.70
2023-02-04T04:51:00.327Z,99.60
2023-02-04T04:54:01.862Z,99.70
2023-02-04T04:57:03.374Z,99.60
2023-02-04T05:00:06.056Z,99.70
2023-02-04T05:03:07.622Z,99.70
2023-02-04T05:06:09.440Z,99.60
2023-02-04T05:09:11.009Z,99.70
2023-02-04T05:12:12.502Z,99.80
2023-02-04T05:15:13.975Z,99.50
2023-02-04T05:18:15.460Z,99.70
2023-02-04T05:21:16.933Z,99.60
2023-02-04T05:24:18.396Z,99.60
2023-02-04T05:27:19.873Z,99.70
2023-02-04T05:30:21.421Z,99.60
2023-02-04T05:33:22.928Z,99.70
2023-02-04T05:36:24.486Z,99.60
2023-02-04T05:39:25.970Z,99.70
2023-02-04T05:42:27.434Z,99.70
2023-02-04T05:45:28.954Z,99.70
2023-02-04T05:48:30.450Z,99.80
2023-02-04T05:51:31.937Z,99.80
2023-02-04T05:54:33.380Z,99.80
2023-02-04T05:57:34.934Z,99.90
2023-02-04T06:00:36.537Z,99.80
2023-02-04T06:03:38.243Z,99.80
2023-02-04T06:06:39.725Z,99.70
2023-02-04T06:09:41.224Z,99.80
2023-02-04T06:12:42.760Z,99.80
2023-02-04T06:15:44.273Z,99.80
2023-02-04T06:18:45.760Z,99.70
2023-02-04T06:21:47.208Z,99.80
2023-02-04T06:24:48.678Z,99.80
2023-02-04T06:27:50.248Z,99.70
2023-02-04T06:30:51.989Z,99.80
2023-02-04T06:33:53.450Z,99.90
2023-02-04T06:36:54.964Z,99.80
2023-02-04T06:39:57.459Z,99.70
2023-02-04T06:42:58.930Z,99.90
2023-02-04T06:46:00.419Z,99.80
2023-02-04T06:49:01.996Z,99.90
2023-02-04T06:52:03.655Z,99.80
2023-02-04T06:55:05.246Z,99.80
2023-02-04T06:58:07.063Z,99.70
2023-02-04T07:01:08.583Z,99.70
2023-02-04T07:04:10.091Z,99.80
2023-02-04T07:07:11.763Z,99.80
2023-02-04T07:10:13.388Z,99.70
2023-02-04T07:13:14.882Z,99.90
2023-02-04T07:16:16.463Z,99.70
2023-02-04T07:19:19.613Z,99.80
2023-02-04T07:22:22.407Z,99.80
2023-02-04T07:25:23.915Z,99.60
2023-02-04T07:28:25.702Z,99.80
2023-02-04T07:31:27.311Z,99.80
2023-02-04T07:34:28.867Z,99.80
2023-02-04T07:37:30.335Z,99.90
2023-02-04T07:40:32.246Z,99.80
2023-02-04T07:43:34.053Z,99.80
2023-02-04T07:46:35.573Z,99.80
2023-02-04T07:49:37.068Z,99.60
2023-02-04T07:52:38.723Z,99.80
2023-02-04T07:55:40.168Z,99.80
2023-02-04T07:58:41.727Z,99.70
2023-02-04T08:01:43.284Z,99.80
2023-02-04T08:04:44.773Z,99.90
2023-02-04T08:07:46.256Z,99.90
2023-02-04T08:10:47.754Z,99.70
2023-02-04T08:13:49.266Z,99.90
2023-02-04T08:16:50.737Z,99.70
2023-02-04T08:19:52.247Z,99.60
2023-02-04T08:22:53.763Z,99.60
2023-02-04T08:25:55.301Z,99.50
2023-02-04T08:28:56.816Z,99.50
2023-02-04T08:31:58.441Z,99.40
2023-02-04T08:35:00.042Z,99.40
2023-02-04T08:38:01.560Z,99.50
2023-02-04T08:41:03.096Z,99.50
2023-02-04T08:44:04.642Z,99.40
2023-02-04T08:47:06.214Z,99.40
2023-02-04T08:50:09.271Z,99.40
2023-02-04T08:53:10.815Z,99.30
2023-02-04T08:56:16.395Z,99.30
2023-02-04T08:59:17.867Z,99.30
2023-02-04T09:02:19.412Z,99.30
2023-02-04T09:05:20.939Z,99.80
2023-02-04T09:08:22.416Z,99.20
2023-02-04T09:11:23.945Z,99.30
2023-02-04T09:14:25.434Z,99.50
2023-02-04T09:17:26.912Z,99.30
2023-02-04T09:20:29.382Z,99.20
2023-02-04T09:23:31.097Z,99.20
2023-02-04T09:26:32.590Z,99.50
2023-02-04T09:29:34.201Z,99.20
2023-02-04T09:32:35.991Z,99.20
2023-02-04T09:35:38.057Z,99.50
2023-02-04T09:38:41.795Z,99.50
2023-02-04T09:41:46.667Z,99.20
2023-02-04T09:44:54.579Z,98.10
2023-02-04T09:48:01.345Z,99.80
2023-02-04T09:51:06.046Z,99.70
2023-02-04T09:54:13.902Z,98.50
2023-02-04T09:57:17.636Z,99.50
2023-02-04T10:00:20.857Z,99.10
2023-02-04T10:03:23.294Z,99.00
2023-02-04T10:06:24.911Z,99.00
2023-02-04T10:09:26.586Z,99.30
2023-02-04T10:12:28.340Z,99.90
2023-02-04T10:15:30.136Z,99.90
2023-02-04T10:18:33.456Z,99.90
2023-02-04T10:21:40.293Z,99.90
2023-02-04T10:24:41.767Z,99.20
2023-02-04T10:27:56.562Z,99.60
2023-02-04T10:30:58.138Z,98.50
2023-02-04T10:34:13.839Z,99.10
2023-02-04T10:37:21.608Z,98.40
2023-02-04T10:40:29.256Z,98.30
2023-02-04T10:43:31.107Z,98.40
2023-02-04T10:46:33.348Z,99.00
2023-02-04T10:49:34.909Z,98.90
2023-02-04T10:52:38.352Z,98.80
2023-02-04T10:55:39.871Z,98.90
2023-02-04T10:58:41.493Z,98.90
2023-02-04T11:01:43.025Z,98.70
2023-02-04T11:04:44.545Z,98.70
2023-02-04T11:07:47.015Z,98.70
2023-02-04T11:10:56.438Z,98.60
2023-02-04T11:14:01.018Z,98.10
2023-02-04T11:17:02.594Z,98.90
2023-02-04T11:20:14.166Z,98.80
2023-02-04T11:23:28.308Z,98.10
2023-02-04T11:26:34.321Z,98.20
2023-02-04T11:29:38.580Z,98.10
2023-02-04T11:32:41.669Z,98.90
2023-02-04T11:35:56.776Z,98.70
2023-02-04T11:39:07.083Z,99.20
2023-02-04T11:42:16.870Z,98.80
2023-02-04T11:45:20.868Z,98.20
2023-02-04T11:48:22.347Z,98.80
2023-02-04T11:51:28.152Z,98.70
2023-02-04T11:54:29.635Z,99.30
2023-02-04T11:57:37.658Z,98.60
2023-02-04T12:00:39.252Z,98.50
2023-02-04T12:03:45.973Z,98.50
2023-02-04T12:06:56.871Z,98.40
2023-02-04T12:09:58.404Z,98.50
2023-02-04T12:12:59.936Z,98.40
2023-02-04T12:16:02.994Z,98.50
2023-02-04T12:19:04.507Z,98.50
2023-02-04T12:22:05.957Z,98.50
2023-02-04T12:25:07.729Z,98.50
2023-02-04T12:28:09.481Z,98.30
2023-02-04T12:31:13.253Z,98.30
2023-02-04T12:34:17.276Z,98.70
2023-02-04T12:37:18.814Z,98.50
2023-02-04T12:40:21.127Z,98.80
2023-02-04T12:43:22.739Z,98.10
2023-02-04T12:46:24.385Z,99.50
2023-02-04T12:49:26.010Z,99.80
2023-02-04T12:52:27.663Z,99.00
2023-02-04T12:55:30.675Z,99.10
2023-02-04T12:58:33.714Z,98.50
2023-02-04T13:01:35.259Z,99.00
2023-02-04T13:04:37.522Z,99.20
2023-02-04T13:07:40.862Z,98.90
2023-02-04T13:10:42.842Z,99.30
2023-02-04T13:13:44.414Z,99.90
2023-02-04T13:16:45.911Z,98.90
2023-02-04T13:19:47.433Z,98.80
2023-02-04T13:22:48.909Z,98.90
2023-02-04T13:25:50.398Z,98.80
2023-02-04T13:28:51.964Z,98.70
2023-02-04T13:31:53.631Z,98.80
2023-02-04T13:34:55.213Z,99.00
2023-02-04T13:37:56.759Z,98.90
2023-02-04T13:40:58.385Z,99.20
2023-02-04T13:43:59.930Z,98.80
2023-02-04T13:47:01.421Z,98.60
2023-02-04T13:50:03.024Z,98.70
2023-02-04T13:53:04.540Z,98.60
2023-02-04T13:56:06.047Z,98.60
2023-02-04T13:59:07.505Z,99.00
2023-02-04T14:02:09.354Z,98.90
2023-02-04T14:05:10.930Z,98.80
2023-02-04T14:08:12.407Z,98.80
2023-02-04T14:11:13.896Z,99.10
2023-02-04T14:14:15.636Z,98.70
2023-02-04T14:17:17.257Z,98.70
2023-02-04T14:20:18.798Z,98.70
2023-02-04T14:23:20.290Z,99.10
2023-02-04T14:26:21.808Z,98.60
2023-02-04T14:29:23.518Z,98.90
2023-02-04T14:32:25.052Z,98.70
2023-02-04T14:35:26.742Z,98.60
2023-02-04T14:38:30.898Z,98.50
2023-02-04T14:41:32.468Z,98.40
2023-02-04T14:44:33.950Z,98.20
2023-02-04T14:47:35.981Z,98.30
2023-02-04T14:50:37.522Z,98.30
2023-02-04T14:53:42.282Z,98.60
2023-02-04T14:56:46.325Z,98.40
2023-02-04T14:59:47.933Z,98.70
2023-02-04T15:02:49.596Z,98.40
2023-02-04T15:05:51.189Z,98.40
2023-02-04T15:08:52.740Z,98.50
2023-02-04T15:11:54.565Z,98.50
2023-02-04T15:14:58.093Z,99.10
2023-02-04T15:18:02.764Z,99.40
2023-02-04T15:21:04.520Z,99.70
2023-02-04T15:24:06.149Z,99.30
2023-02-04T15:27:07.792Z,98.90
2023-02-04T15:30:09.672Z,99.60
2023-02-04T15:33:13.036Z,98.90
2023-02-04T15:36:14.680Z,99.90
2023-02-04T15:39:16.325Z,99.90
2023-02-04T15:42:24.755Z,99.40
2023-02-04T15:45:29.129Z,99.50
2023-02-04T15:48:30.646Z,99.90
2023-02-04T15:51:32.148Z,99.10
2023-02-04T15:54:33.685Z,99.30
2023-02-04T15:57:35.228Z,99.30
2023-02-04T16:00:36.753Z,99.70
2023-02-04T16:03:38.190Z,99.30
2023-02-04T16:06:43.017Z,99.40
2023-02-04T16:09:46.658Z,99.50
2023-02-04T16:12:48.274Z,99.40
2023-02-04T16:15:49.768Z,99.50
2023-02-04T16:18:51.260Z,99.70
2023-02-04T16:21:52.792Z,99.60
2023-02-04T16:24:54.958Z,99.70
2023-02-04T16:27:56.459Z,99.70
2023-02-04T16:30:58.226Z,99.70
2023-02-04T16:33:59.876Z,99.90
2023-02-04T16:37:01.358Z,99.80
2023-02-04T16:40:03.383Z,99.80
2023-02-04T16:43:04.856Z,99.80
2023-02-04T16:46:06.427Z,99.70
2023-02-04T16:49:08.012Z,99.60
2023-02-04T16:52:09.476Z,99.70
2023-02-04T16:55:10.945Z,99.60
2023-02-04T16:58:13.054Z,99.50
2023-02-04T17:01:16.983Z,99.40
2023-02-04T17:04:18.539Z,99.50
2023-02-04T17:07:20.017Z,99.30
2023-02-04T17:10:41.468Z,99.20
2023-02-04T17:13:42.912Z,99.30
2023-02-04T17:16:45.215Z,99.20
2023-02-04T17:19:46.760Z,98.90
2023-02-04T17:22:48.234Z,99.00
2023-02-04T17:25:49.925Z,99.00
2023-02-04T17:28:51.416Z,99.30
2023-02-04T17:31:53.139Z,99.10
2023-02-04T17:34:56.576Z,99.00
2023-02-04T17:38:01.008Z,99.00
2023-02-04T17:41:02.590Z,99.00
2023-02-04T17:44:04.317Z,99.00
2023-02-04T17:47:05.843Z,99.00
2023-02-04T17:50:09.718Z,99.10
2023-02-04T17:53:13.912Z,99.00
2023-02-04T17:56:15.594Z,99.20
2023-02-04T17:59:17.168Z,99.60
2023-02-04T18:02:26.679Z,99.90
2023-02-04T18:05:29.620Z,98.40
2023-02-04T18:08:39.407Z,99.50
2023-02-04T18:11:41.362Z,98.70
2023-02-04T18:14:44.783Z,99.90
2023-02-04T18:17:46.384Z,99.60
2023-02-04T18:20:50.900Z,99.60
2023-02-04T18:24:02.047Z,99.40
2023-02-04T18:27:14.649Z,98.50
2023-02-04T18:30:20.030Z,98.70
2023-02-04T18:33:26.141Z,99.50
2023-02-04T18:36:28.066Z,98.50
2023-02-04T18:39:32.759Z,99.90
2023-02-04T18:42:36.707Z,99.50
2023-02-04T18:45:38.441Z,99.20
2023-02-04T18:49:18.702Z,99.70
2023-02-04T18:52:21.014Z,98.50
2023-02-04T18:55:24.675Z,99.10
2023-02-04T18:58:34.047Z,99.50
2023-02-04T19:01:38.860Z,98.20
2023-02-04T19:04:45.284Z,99.30
2023-02-04T19:07:46.889Z,99.10
2023-02-04T19:10:49.056Z,99.20
2023-02-04T19:13:52.875Z,99.20
2023-02-04T19:16:58.230Z,99.80
2023-02-04T19:20:01.264Z,99.30
2023-02-04T19:23:03.058Z,99.50
2023-02-04T19:26:21.714Z,99.90
2023-02-04T19:29:24.847Z,99.80
2023-02-04T19:32:27.816Z,99.20
2023-02-04T19:35:39.109Z,99.70
2023-02-04T19:38:42.921Z,99.60
2023-02-04T19:41:51.348Z,99.80
2023-02-04T19:44:52.949Z,98.40
2023-02-04T19:47:55.539Z,99.50
2023-02-04T19:50:57.062Z,99.00
2023-02-04T19:54:10.452Z,99.30
2023-02-04T19:57:21.690Z,98.40
2023-02-04T20:00:38.587Z,98.40
2023-02-04T20:03:41.329Z,98.20
2023-02-04T20:06:43.827Z,98.90
2023-02-04T20:09:45.435Z,99.40
2023-02-04T20:12:46.951Z,99.00
2023-02-04T20:15:50.272Z,99.00
2023-02-04T20:18:51.815Z,99.10
2023-02-04T20:22:13.659Z,99.40
2023-02-04T20:25:21.538Z,99.00
2023-02-04T20:28:23.271Z,98.50
2023-02-04T20:31:27.006Z,99.40
2023-02-04T20:34:28.708Z,99.30
2023-02-04T20:37:30.790Z,99.50
2023-02-04T20:40:33.931Z,99.80
2023-02-04T20:43:35.452Z,99.50
2023-02-04T20:46:37.384Z,99.30
2023-02-04T20:49:43.443Z,99.40
2023-02-04T20:53:00.958Z,98.70
2023-02-04T20:56:23.463Z,99.30
2023-02-04T20:59:33.724Z,99.30
2023-02-04T21:02:35.220Z,98.90
2023-02-04T21:05:36.702Z,99.20
2023-02-04T21:08:45.693Z,99.20
2023-02-04T21:11:47.183Z,98.60
2023-02-04T21:14:48.700Z,99.30
2023-02-04T21:17:50.215Z,99.20
2023-02-04T21:20:51.694Z,99.10
2023-02-04T21:23:53.235Z,99.10
2023-02-04T21:26:54.724Z,99.10
2023-02-04T21:29:56.211Z,99.10
2023-02-04T21:32:57.987Z,99.20
2023-02-04T21:35:59.483Z,99.20
2023-02-04T21:39:01.296Z,99.10
2023-02-04T21:42:13.200Z,98.60
2023-02-04T21:45:17.005Z,98.90
2023-02-04T21:48:18.520Z,99.10
2023-02-04T21:51:20.048Z,99.20
2023-02-04T21:54:21.543Z,99.20
2023-02-04T21:57:23.065Z,99.10
2023-02-04T22:00:24.896Z,99.50
2023-02-04T22:03:26.420Z,99.00
2023-02-04T22:06:28.034Z,98.90
2023-02-04T22:09:29.529Z,99.10
2023-02-04T22:12:31.100Z,99.40
2023-02-04T22:15:34.664Z,99.20
2023-02-04T22:18:36.387Z,99.30
2023-02-04T22:21:38.423Z,99.30
2023-02-04T22:24:40.092Z,99.30
2023-02-04T22:27:41.611Z,99.30
2023-02-04T22:30:43.182Z,99.20
2023-02-04T22:33:44.699Z,99.20
2023-02-04T22:36:46.288Z,99.40
2023-02-04T22:39:47.774Z,99.20
2023-02-04T22:42:49.228Z,99.00
2023-02-04T22:45:50.710Z,98.90
2023-02-04T22:48:52.218Z,98.90
2023-02-04T22:51:53.712Z,99.00
2023-02-04T22:54:55.222Z,98.90
2023-02-04T22:57:56.709Z,98.90
2023-02-04T23:00:58.361Z,99.00
2023-02-04T23:03:59.845Z,99.00
2023-02-04T23:07:04.491Z,99.10
2023-02-04T23:10:06.505Z,98.80
2023-02-04T23:13:08.077Z,99.10
2023-02-04T23:16:09.661Z,99.10
2023-02-04T23:19:11.142Z,99.60
2023-02-04T23:22:13.084Z,99.20
2023-02-04T23:25:14.584Z,99.20
2023-02-04T23:28:16.491Z,99.00
2023-02-04T23:31:18.268Z,99.00
2023-02-04T23:34:19.754Z,99.50
2023-02-04T23:37:21.225Z,99.00
2023-02-04T23:40:22.803Z,99.10
2023-02-04T23:43:24.285Z,99.10
2023-02-04T23:46:25.725Z,99.40
2023-02-04T23:49:27.266Z,99.10
2023-02-04T23:52:29.411Z,99.00
2023-02-04T23:55:32.872Z,99.10
2023-02-04T23:58:34.563Z,99.10
